sensor_id;sensor_type;location;lat;lon;timestamp;pressure;altitude;pressure_sealevel;temperature;humidity
9110;BME280;4590;51.462;6.692;2022-09-29T00:02:08;99782.06;;;10.68;69.13
9110;BME280;4590;51.462;6.692;2022-09-29T00:04:34;99772.84;;;10.64;69.04
9110;BME280;4590;51.462;6.692;2022-09-29T00:06:59;99782.22;;;10.63;69.05
9110;BME280;4590;51.462;6.692;2022-09-29T00:09:24;99788.06;;;10.62;69.04
9110;BME280;4590;51.462;6.692;2022-09-29T00:11:53;99775.78;;;10.59;69.32
9110;BME280;4590;51.462;6.692;2022-09-29T00:14:19;99775.78;;;10.59;69.25
9110;BME280;4590;51.462;6.692;2022-09-29T00:16:44;99780.78;;;10.57;69.08
9110;BME280;4590;51.462;6.692;2022-09-29T00:19:10;99784.22;;;10.54;68.82
9110;BME280;4590;51.462;6.692;2022-09-29T00:21:35;99778.25;;;10.52;68.93
9110;BME280;4590;51.462;6.692;2022-09-29T00:24:01;99782.13;;;10.51;68.84
9110;BME280;4590;51.462;6.692;2022-09-29T00:26:26;99781.00;;;10.52;69.07
9110;BME280;4590;51.462;6.692;2022-09-29T00:28:54;99781.66;;;10.49;69.39
9110;BME280;4590;51.462;6.692;2022-09-29T00:31:22;99786.34;;;10.48;68.74
9110;BME280;4590;51.462;6.692;2022-09-29T00:33:48;99777.59;;;10.46;69.05
9110;BME280;4590;51.462;6.692;2022-09-29T00:36:16;99778.25;;;10.43;68.90
9110;BME280;4590;51.462;6.692;2022-09-29T00:38:43;99770.31;;;10.42;68.76
9110;BME280;4590;51.462;6.692;2022-09-29T00:41:29;99782.19;;;10.34;68.83
9110;BME280;4590;51.462;6.692;2022-09-29T00:46:36;99774.56;;;10.31;69.03
9110;BME280;4590;51.462;6.692;2022-09-29T00:49:28;99775.06;;;10.33;69.12
9110;BME280;4590;51.462;6.692;2022-09-29T00:54:21;99782.19;;;10.34;69.06
9110;BME280;4590;51.462;6.692;2022-09-29T00:56:48;99784.94;;;10.34;69.07
9110;BME280;4590;51.462;6.692;2022-09-29T00:59:20;99782.19;;;10.34;68.89
9110;BME280;4590;51.462;6.692;2022-09-29T01:01:48;99779.09;;;10.35;69.37
9110;BME280;4590;51.462;6.692;2022-09-29T01:04:15;99778.63;;;10.33;69.40
9110;BME280;4590;51.462;6.692;2022-09-29T01:06:50;99782.81;;;10.31;69.04
9110;BME280;4590;51.462;6.692;2022-09-29T01:09:19;99789.13;;;10.31;69.21
9110;BME280;4590;51.462;6.692;2022-09-29T01:11:46;99787.53;;;10.30;69.11
9110;BME280;4590;51.462;6.692;2022-09-29T01:14:12;99778.47;;;10.30;68.96
9110;BME280;4590;51.462;6.692;2022-09-29T01:16:38;99779.59;;;10.29;69.19
9110;BME280;4590;51.462;6.692;2022-09-29T01:19:10;99783.00;;;10.26;69.59
9110;BME280;4590;51.462;6.692;2022-09-29T01:27:29;99784.94;;;10.16;69.70
9110;BME280;4590;51.462;6.692;2022-09-29T01:30:20;99785.25;;;10.15;69.74
9110;BME280;4590;51.462;6.692;2022-09-29T01:32:59;99778.97;;;10.14;69.66
9110;BME280;4590;51.462;6.692;2022-09-29T01:44:00;99785.09;;;10.11;69.60
9110;BME280;4590;51.462;6.692;2022-09-29T01:46:35;99786.41;;;10.14;69.73
9110;BME280;4590;51.462;6.692;2022-09-29T01:49:03;99788.81;;;10.15;69.74
9110;BME280;4590;51.462;6.692;2022-09-29T01:51:35;99791.88;;;10.14;69.42
9110;BME280;4590;51.462;6.692;2022-09-29T01:54:07;99793.81;;;10.13;69.80
9110;BME280;4590;51.462;6.692;2022-09-29T01:56:42;99793.03;;;10.13;69.79
9110;BME280;4590;51.462;6.692;2022-09-29T01:59:18;99787.84;;;10.11;69.39
9110;BME280;4590;51.462;6.692;2022-09-29T02:01:46;99794.19;;;10.03;70.02
9110;BME280;4590;51.462;6.692;2022-09-29T02:04:25;99800.66;;;9.99;70.17
9110;BME280;4590;51.462;6.692;2022-09-29T02:06:58;99796.94;;;10.03;69.39
9110;BME280;4590;51.462;6.692;2022-09-29T02:09:30;99791.75;;;10.02;69.33
9110;BME280;4590;51.462;6.692;2022-09-29T02:11:59;99789.81;;;10.02;69.53
9110;BME280;4590;51.462;6.692;2022-09-29T02:14:28;99787.38;;;10.01;69.57
9110;BME280;4590;51.462;6.692;2022-09-29T02:17:02;99794.03;;;10.00;69.35
9110;BME280;4590;51.462;6.692;2022-09-29T02:19:30;99789.34;;;10.00;69.73
9110;BME280;4590;51.462;6.692;2022-09-29T02:21:57;99790.47;;;9.99;69.33
9110;BME280;4590;51.462;6.692;2022-09-29T02:24:23;99792.41;;;9.99;69.53
9110;BME280;4590;51.462;6.692;2022-09-29T02:26:50;99795.16;;;9.99;69.44
9110;BME280;4590;51.462;6.692;2022-09-29T02:29:15;99792.44;;;9.90;69.84
9110;BME280;4590;51.462;6.692;2022-09-29T02:31:41;99796.59;;;9.96;69.67
9110;BME280;4590;51.462;6.692;2022-09-29T02:34:09;99793.38;;;9.94;69.18
9110;BME280;4590;51.462;6.692;2022-09-29T02:36:53;99792.06;;;9.92;69.54
9110;BME280;4590;51.462;6.692;2022-09-29T03:26:42;99796.47;;;9.75;69.90
9110;BME280;4590;51.462;6.692;2022-09-29T03:29:10;99792.56;;;9.76;69.95
9110;BME280;4590;51.462;6.692;2022-09-29T03:31:38;99793.72;;;9.75;70.35
9110;BME280;4590;51.462;6.692;2022-09-29T03:34:05;99792.91;;;9.75;70.13
9110;BME280;4590;51.462;6.692;2022-09-29T03:36:31;99788.56;;;9.74;70.26
9110;BME280;4590;51.462;6.692;2022-09-29T04:17:46;99818.44;;;9.67;70.36
9110;BME280;4590;51.462;6.692;2022-09-29T04:38:18;99826.38;;;9.60;71.17
9110;BME280;4590;51.462;6.692;2022-09-29T05:58:39;99876.22;;;9.44;71.11
9110;BME280;4590;51.462;6.692;2022-09-29T07:39:21;99947.53;;;12.02;71.48
9110;BME280;4590;51.462;6.692;2022-09-29T07:46:57;99942.63;;;12.49;70.88
9110;BME280;4590;51.462;6.692;2022-09-29T07:49:26;99947.31;;;12.69;70.70
9110;BME280;4590;51.462;6.692;2022-09-29T07:51:52;99950.38;;;12.88;70.25
9110;BME280;4590;51.462;6.692;2022-09-29T07:56:54;99942.63;;;13.27;69.47
9110;BME280;4590;51.462;6.692;2022-09-29T08:07:06;99955.66;;;13.99;67.88
9110;BME280;4590;51.462;6.692;2022-09-29T08:14:47;99965.88;;;14.63;67.08
9110;BME280;4590;51.462;6.692;2022-09-29T08:17:15;99963.59;;;14.81;66.62
9110;BME280;4590;51.462;6.692;2022-09-29T08:22:14;99971.56;;;15.26;66.36
9110;BME280;4590;51.462;6.692;2022-09-29T08:24:39;99973.25;;;15.47;65.67
9110;BME280;4590;51.462;6.692;2022-09-29T08:27:06;99976.59;;;15.68;64.88
9110;BME280;4590;51.462;6.692;2022-09-29T08:29:33;99976.59;;;15.84;64.32
9110;BME280;4590;51.462;6.692;2022-09-29T08:31:58;99975.13;;;16.05;63.85
9110;BME280;4590;51.462;6.692;2022-09-29T08:34:24;99983.41;;;16.21;63.28
9110;BME280;4590;51.462;6.692;2022-09-29T08:45:12;99996.91;;;16.96;60.22
9110;BME280;4590;51.462;6.692;2022-09-29T09:23:00;100016.69;;;19.21;49.93
9110;BME280;4590;51.462;6.692;2022-09-29T09:41:35;100010.63;;;19.93;48.96
9110;BME280;4590;51.462;6.692;2022-09-29T09:44:13;100012.19;;;19.91;48.66
9110;BME280;4590;51.462;6.692;2022-09-29T09:49:26;100018.28;;;20.07;51.38
9110;BME280;4590;51.462;6.692;2022-09-29T09:51:58;100015.56;;;20.14;51.19
9110;BME280;4590;51.462;6.692;2022-09-29T09:54:32;100010.88;;;20.29;51.08
9110;BME280;4590;51.462;6.692;2022-09-29T09:57:10;100022.84;;;20.33;48.79
9110;BME280;4590;51.462;6.692;2022-09-29T09:59:58;100015.78;;;20.46;49.04
9110;BME280;4590;51.462;6.692;2022-09-29T10:02:28;100015.38;;;20.44;49.70
9110;BME280;4590;51.462;6.692;2022-09-29T10:04:54;100015.47;;;20.58;49.46
9110;BME280;4590;51.462;6.692;2022-09-29T10:07:22;100017.50;;;20.69;48.96
9110;BME280;4590;51.462;6.692;2022-09-29T10:09:48;100017.53;;;20.79;48.41
9110;BME280;4590;51.462;6.692;2022-09-29T10:12:19;100019.97;;;20.84;46.24
9110;BME280;4590;51.462;6.692;2022-09-29T10:15:11;100013.16;;;20.82;42.85
9110;BME280;4590;51.462;6.692;2022-09-29T10:17:44;100018.81;;;20.99;46.64
9110;BME280;4590;51.462;6.692;2022-09-29T10:20:10;100017.66;;;21.11;47.03
9110;BME280;4590;51.462;6.692;2022-09-29T10:22:36;100024.84;;;21.05;42.85
9110;BME280;4590;51.462;6.692;2022-09-29T10:27:40;100020.16;;;21.30;45.79
9110;BME280;4590;51.462;6.692;2022-09-29T10:30:23;100024.13;;;21.22;42.30
9110;BME280;4590;51.462;6.692;2022-09-29T10:32:54;100025.38;;;21.43;44.24
9110;BME280;4590;51.462;6.692;2022-09-29T10:35:25;100026.59;;;21.49;45.08
9110;BME280;4590;51.462;6.692;2022-09-29T10:38:00;100024.16;;;21.44;43.27
9110;BME280;4590;51.462;6.692;2022-09-29T10:40:26;100028.97;;;21.47;44.81
9110;BME280;4590;51.462;6.692;2022-09-29T10:42:52;100035.75;;;21.31;41.54
9110;BME280;4590;51.462;6.692;2022-09-29T10:45:31;100031.38;;;21.38;44.60
9110;BME280;4590;51.462;6.692;2022-09-29T10:48:13;100032.16;;;21.34;44.19
9110;BME280;4590;51.462;6.692;2022-09-29T10:50:53;100031.31;;;21.27;43.36
9110;BME280;4590;51.462;6.692;2022-09-29T10:53:37;100035.66;;;21.07;42.16
9110;BME280;4590;51.462;6.692;2022-09-29T10:56:16;100034.41;;;20.97;41.81
9110;BME280;4590;51.462;6.692;2022-09-29T10:58:44;100040.78;;;20.94;43.48
9110;BME280;4590;51.462;6.692;2022-09-29T11:01:17;100035.63;;;21.03;43.15
9110;BME280;4590;51.462;6.692;2022-09-29T11:03:55;100036.06;;;21.09;41.57
9110;BME280;4590;51.462;6.692;2022-09-29T11:06:33;100045.63;;;21.04;42.23
9110;BME280;4590;51.462;6.692;2022-09-29T11:09:05;100042.78;;;20.93;43.13
9110;BME280;4590;51.462;6.692;2022-09-29T11:17:19;100041.72;;;20.47;43.89
9110;BME280;4590;51.462;6.692;2022-09-29T11:22:35;100046.56;;;20.02;43.47
9110;BME280;4590;51.462;6.692;2022-09-29T11:25:42;100056.78;;;19.80;42.67
9110;BME280;4590;51.462;6.692;2022-09-29T11:28:37;100059.06;;;19.71;43.35
9110;BME280;4590;51.462;6.692;2022-09-29T11:34:05;100065.03;;;19.33;43.40
9110;BME280;4590;51.462;6.692;2022-09-29T11:36:55;100055.56;;;19.07;41.34
9110;BME280;4590;51.462;6.692;2022-09-29T11:39:44;100054.34;;;19.05;42.58
9110;BME280;4590;51.462;6.692;2022-09-29T11:45:01;100063.91;;;19.04;43.41
9110;BME280;4590;51.462;6.692;2022-09-29T11:47:38;100057.44;;;18.96;43.15
9110;BME280;4590;51.462;6.692;2022-09-29T11:53:22;100062.63;;;18.68;41.18
9110;BME280;4590;51.462;6.692;2022-09-29T12:04:12;100061.06;;;18.44;43.05
9110;BME280;4590;51.462;6.692;2022-09-29T12:07:03;100066.09;;;18.35;42.89
9110;BME280;4590;51.462;6.692;2022-09-29T12:15:26;100054.47;;;18.29;42.54
9110;BME280;4590;51.462;6.692;2022-09-29T12:17:59;100056.09;;;18.30;43.57
9110;BME280;4590;51.462;6.692;2022-09-29T12:20:30;100054.81;;;18.24;43.45
9110;BME280;4590;51.462;6.692;2022-09-29T12:22:58;100053.03;;;18.12;43.04
9110;BME280;4590;51.462;6.692;2022-09-29T12:25:33;100057.84;;;18.15;43.08
9110;BME280;4590;51.462;6.692;2022-09-29T12:28:05;100058.16;;;18.10;43.25
9110;BME280;4590;51.462;6.692;2022-09-29T12:30:42;100052.50;;;18.03;42.51
9110;BME280;4590;51.462;6.692;2022-09-29T12:33:19;100054.03;;;18.01;42.74
9110;BME280;4590;51.462;6.692;2022-09-29T12:35:51;100064.44;;;18.04;44.22
9110;BME280;4590;51.462;6.692;2022-09-29T12:38:38;100051.16;;;17.94;42.99
9110;BME280;4590;51.462;6.692;2022-09-29T12:41:16;100057.47;;;17.91;43.21
9110;BME280;4590;51.462;6.692;2022-09-29T12:44:07;100044.22;;;17.84;43.69
9110;BME280;4590;51.462;6.692;2022-09-29T12:46:47;100054.97;;;17.85;44.11
9110;BME280;4590;51.462;6.692;2022-09-29T12:51:56;100051.38;;;17.85;43.69
9110;BME280;4590;51.462;6.692;2022-09-29T12:54:31;100053.31;;;17.81;42.23
9110;BME280;4590;51.462;6.692;2022-09-29T12:57:33;100051.59;;;17.73;41.35
9110;BME280;4590;51.462;6.692;2022-09-29T13:00:01;100057.31;;;17.83;43.36
9110;BME280;4590;51.462;6.692;2022-09-29T13:22:09;100060.31;;;17.71;42.41
9110;BME280;4590;51.462;6.692;2022-09-29T13:27:39;100062.66;;;17.69;42.27
9110;BME280;4590;51.462;6.692;2022-09-29T13:30:25;100067.63;;;17.60;39.58
9110;BME280;4590;51.462;6.692;2022-09-29T13:33:08;100058.47;;;17.60;40.81
9110;BME280;4590;51.462;6.692;2022-09-29T13:35:39;100063.97;;;17.56;41.36
9110;BME280;4590;51.462;6.692;2022-09-29T13:38:12;100057.22;;;17.57;41.97
9110;BME280;4590;51.462;6.692;2022-09-29T13:51:41;100062.38;;;17.55;42.24
9110;BME280;4590;51.462;6.692;2022-09-29T13:54:28;100067.28;;;17.42;41.00
9110;BME280;4590;51.462;6.692;2022-09-29T13:59:28;100071.06;;;17.53;43.20
9110;BME280;4590;51.462;6.692;2022-09-29T14:01:54;100072.69;;;17.54;43.34
9110;BME280;4590;51.462;6.692;2022-09-29T14:04:37;100085.66;;;17.47;43.35
9110;BME280;4590;51.462;6.692;2022-09-29T14:07:10;100075.03;;;17.52;44.19
9110;BME280;4590;51.462;6.692;2022-09-29T14:09:40;100078.53;;;17.49;44.08
9110;BME280;4590;51.462;6.692;2022-09-29T14:12:23;100079.59;;;17.41;43.63
9110;BME280;4590;51.462;6.692;2022-09-29T14:14:55;100090.78;;;17.45;44.63
9110;BME280;4590;51.462;6.692;2022-09-29T14:17:33;100089.91;;;17.41;45.12
9110;BME280;4590;51.462;6.692;2022-09-29T14:20:19;100083.47;;;17.37;44.84
9110;BME280;4590;51.462;6.692;2022-09-29T14:23:06;100091.31;;;17.31;45.00
9110;BME280;4590;51.462;6.692;2022-09-29T14:25:47;100100.84;;;17.30;44.86
9110;BME280;4590;51.462;6.692;2022-09-29T14:28:19;100091.31;;;17.31;44.64
9110;BME280;4590;51.462;6.692;2022-09-29T14:30:53;100095.19;;;17.27;44.78
9110;BME280;4590;51.462;6.692;2022-09-29T14:33:25;100095.47;;;17.22;44.34
9110;BME280;4590;51.462;6.692;2022-09-29T14:38:31;100099.78;;;17.19;44.23
9110;BME280;4590;51.462;6.692;2022-09-29T14:41:22;100097.81;;;17.19;44.36
9110;BME280;4590;51.462;6.692;2022-09-29T14:43:54;100098.19;;;17.18;43.75
9110;BME280;4590;51.462;6.692;2022-09-29T14:46:43;100106.53;;;17.18;44.08
9110;BME280;4590;51.462;6.692;2022-09-29T15:03:26;100121.31;;;17.41;43.39
9110;BME280;4590;51.462;6.692;2022-09-29T15:06:25;100110.69;;;17.47;43.13
9110;BME280;4590;51.462;6.692;2022-09-29T15:11:31;100116.47;;;17.58;42.79
9110;BME280;4590;51.462;6.692;2022-09-29T15:13:59;100122.50;;;17.63;43.54
9110;BME280;4590;51.462;6.692;2022-09-29T15:16:26;100116.94;;;17.63;43.35
9110;BME280;4590;51.462;6.692;2022-09-29T15:24:20;100118.16;;;17.62;43.37
9110;BME280;4590;51.462;6.692;2022-09-29T15:26:51;100119.03;;;17.66;42.85
9110;BME280;4590;51.462;6.692;2022-09-29T15:29:17;100125.41;;;17.67;43.17
9110;BME280;4590;51.462;6.692;2022-09-29T15:31:45;100132.50;;;17.64;43.54
9110;BME280;4590;51.462;6.692;2022-09-29T15:34:16;100126.84;;;17.61;43.55
9110;BME280;4590;51.462;6.692;2022-09-29T15:36:46;100128.38;;;17.58;43.06
9110;BME280;4590;51.462;6.692;2022-09-29T15:42:03;100131.47;;;17.53;44.41
9110;BME280;4590;51.462;6.692;2022-09-29T15:44:35;100130.22;;;17.50;44.52
9110;BME280;4590;51.462;6.692;2022-09-29T15:47:00;100131.34;;;17.46;43.87
9110;BME280;4590;51.462;6.692;2022-09-29T15:49:27;100138.81;;;17.42;44.06
9110;BME280;4590;51.462;6.692;2022-09-29T15:54:21;100137.03;;;17.34;44.56
9110;BME280;4590;51.462;6.692;2022-09-29T15:56:47;100143.34;;;17.31;45.14
9110;BME280;4590;51.462;6.692;2022-09-29T15:59:38;100142.31;;;17.19;44.08
9110;BME280;4590;51.462;6.692;2022-09-29T16:02:14;100148.97;;;17.15;43.12
9110;BME280;4590;51.462;6.692;2022-09-29T16:04:42;100150.50;;;17.12;43.90
9110;BME280;4590;51.462;6.692;2022-09-29T16:07:26;100156.34;;;17.07;43.09
9110;BME280;4590;51.462;6.692;2022-09-29T16:09:57;100161.00;;;17.03;43.28
9110;BME280;4590;51.462;6.692;2022-09-29T16:12:24;100158.59;;;17.02;43.21
9110;BME280;4590;51.462;6.692;2022-09-29T16:14:53;100164.81;;;16.95;43.23
9110;BME280;4590;51.462;6.692;2022-09-29T16:17:19;100171.19;;;16.96;44.22
9110;BME280;4590;51.462;6.692;2022-09-29T16:19:48;100169.47;;;16.91;44.49
9110;BME280;4590;51.462;6.692;2022-09-29T16:22:23;100177.69;;;16.84;44.36
9110;BME280;4590;51.462;6.692;2022-09-29T16:25:21;100175.06;;;16.75;46.11
9110;BME280;4590;51.462;6.692;2022-09-29T16:27:58;100184.22;;;16.76;46.42
9110;BME280;4590;51.462;6.692;2022-09-29T16:30:35;100188.00;;;16.68;46.67
9110;BME280;4590;51.462;6.692;2022-09-29T16:33:19;100191.75;;;16.60;47.03
9110;BME280;4590;51.462;6.692;2022-09-29T16:35:56;100194.41;;;16.56;47.42
9110;BME280;4590;51.462;6.692;2022-09-29T16:38:37;100198.66;;;16.50;48.07
9110;BME280;4590;51.462;6.692;2022-09-29T16:41:30;100204.22;;;16.50;48.00
9110;BME280;4590;51.462;6.692;2022-09-29T16:47:01;100207.88;;;16.38;47.48
9110;BME280;4590;51.462;6.692;2022-09-29T16:49:32;100211.03;;;16.37;47.75
9110;BME280;4590;51.462;6.692;2022-09-29T16:52:11;100204.00;;;16.27;48.79
9110;BME280;4590;51.462;6.692;2022-09-29T16:54:44;100215.13;;;16.27;48.99
9110;BME280;4590;51.462;6.692;2022-09-29T16:57:27;100216.13;;;16.19;49.68
9110;BME280;4590;51.462;6.692;2022-09-29T16:59:58;100218.53;;;16.21;49.49
9110;BME280;4590;51.462;6.692;2022-09-29T17:02:25;100224.00;;;16.17;50.15
9110;BME280;4590;51.462;6.692;2022-09-29T17:04:51;100223.09;;;16.13;50.73
9110;BME280;4590;51.462;6.692;2022-09-29T17:07:19;100224.13;;;16.08;50.87
9110;BME280;4590;51.462;6.692;2022-09-29T17:09:51;100225.59;;;16.02;51.31
9110;BME280;4590;51.462;6.692;2022-09-29T17:12:18;100222.34;;;16.00;51.53
9110;BME280;4590;51.462;6.692;2022-09-29T17:14:43;100236.13;;;15.97;51.91
9110;BME280;4590;51.462;6.692;2022-09-29T17:17:22;100232.34;;;15.89;52.44
9110;BME280;4590;51.462;6.692;2022-09-29T17:19:48;100225.53;;;15.87;52.91
9110;BME280;4590;51.462;6.692;2022-09-29T17:22:19;100230.06;;;15.79;52.88
9110;BME280;4590;51.462;6.692;2022-09-29T17:24:47;100239.81;;;15.73;52.80
9110;BME280;4590;51.462;6.692;2022-09-29T17:27:12;100240.78;;;15.65;53.44
9110;BME280;4590;51.462;6.692;2022-09-29T17:29:56;100241.75;;;15.57;53.76
9110;BME280;4590;51.462;6.692;2022-09-29T17:32:22;100242.28;;;15.50;53.89
9110;BME280;4590;51.462;6.692;2022-09-29T17:34:47;100245.69;;;15.31;55.37
9110;BME280;4590;51.462;6.692;2022-09-29T17:37:13;100253.31;;;15.34;54.01
9110;BME280;4590;51.462;6.692;2022-09-29T17:39:42;100247.91;;;15.26;54.01
9110;BME280;4590;51.462;6.692;2022-09-29T17:42:07;100253.91;;;15.16;54.33
9110;BME280;4590;51.462;6.692;2022-09-29T17:44:33;100256.47;;;15.08;54.89
9110;BME280;4590;51.462;6.692;2022-09-29T17:46:58;100265.38;;;15.02;54.77
9110;BME280;4590;51.462;6.692;2022-09-29T17:49:24;100265.94;;;14.95;54.86
9110;BME280;4590;51.462;6.692;2022-09-29T17:51:49;100261.00;;;14.89;55.13
9110;BME280;4590;51.462;6.692;2022-09-29T17:54:16;100261.56;;;14.70;56.63
9110;BME280;4590;51.462;6.692;2022-09-29T17:56:42;100270.81;;;14.74;55.47
9110;BME280;4590;51.462;6.692;2022-09-29T17:59:08;100277.03;;;14.71;56.06
9110;BME280;4590;51.462;6.692;2022-09-29T18:01:34;100272.16;;;14.68;55.92
9110;BME280;4590;51.462;6.692;2022-09-29T18:04:00;100279.91;;;14.62;56.14
9110;BME280;4590;51.462;6.692;2022-09-29T18:06:26;100280.94;;;14.58;56.23
9110;BME280;4590;51.462;6.692;2022-09-29T18:08:53;100275.63;;;14.53;56.52
9110;BME280;4590;51.462;6.692;2022-09-29T18:11:23;100287.28;;;14.46;56.52
9110;BME280;4590;51.462;6.692;2022-09-29T18:13:49;100295.13;;;14.44;56.98
9110;BME280;4590;51.462;6.692;2022-09-29T18:16:17;100301.16;;;14.37;56.83
9110;BME280;4590;51.462;6.692;2022-09-29T18:18:43;100303.38;;;14.32;57.02
9110;BME280;4590;51.462;6.692;2022-09-29T18:21:09;100303.91;;;14.25;56.88
9110;BME280;4590;51.462;6.692;2022-09-29T18:23:35;100312.28;;;14.17;57.21
9110;BME280;4590;51.462;6.692;2022-09-29T18:26:01;100310.91;;;14.11;57.23
9110;BME280;4590;51.462;6.692;2022-09-29T18:28:26;100310.28;;;14.05;57.72
9110;BME280;4590;51.462;6.692;2022-09-29T18:31:04;100306.00;;;13.95;57.79
9110;BME280;4590;51.462;6.692;2022-09-29T18:33:31;100309.56;;;13.96;57.88
9110;BME280;4590;51.462;6.692;2022-09-29T18:35:57;100319.22;;;13.90;57.88
9110;BME280;4590;51.462;6.692;2022-09-29T18:38:24;100311.91;;;13.85;58.01
9110;BME280;4590;51.462;6.692;2022-09-29T18:40:53;100313.28;;;13.79;58.01
9110;BME280;4590;51.462;6.692;2022-09-29T18:43:20;100318.69;;;13.76;58.33
9110;BME280;4590;51.462;6.692;2022-09-29T18:45:47;100323.25;;;13.72;58.21
9110;BME280;4590;51.462;6.692;2022-09-29T18:48:14;100324.28;;;13.67;58.33
9110;BME280;4590;51.462;6.692;2022-09-29T18:50:42;100317.81;;;13.63;58.57
9110;BME280;4590;51.462;6.692;2022-09-29T18:53:08;100333.13;;;13.60;58.83
9110;BME280;4590;51.462;6.692;2022-09-29T18:55:34;100338.50;;;13.57;58.82
9110;BME280;4590;51.462;6.692;2022-09-29T18:57:59;100324.56;;;13.53;59.00
9110;BME280;4590;51.462;6.692;2022-09-29T19:00:33;100331.09;;;13.49;59.15
9110;BME280;4590;51.462;6.692;2022-09-29T19:03:03;100335.00;;;13.48;59.21
9110;BME280;4590;51.462;6.692;2022-09-29T19:05:30;100327.03;;;13.46;59.18
9110;BME280;4590;51.462;6.692;2022-09-29T19:08:05;100341.38;;;13.40;59.24
9110;BME280;4590;51.462;6.692;2022-09-29T19:10:32;100338.63;;;13.40;59.20
9110;BME280;4590;51.462;6.692;2022-09-29T19:13:03;100343.88;;;13.32;59.40
9110;BME280;4590;51.462;6.692;2022-09-29T19:15:31;100345.34;;;13.30;59.56
9110;BME280;4590;51.462;6.692;2022-09-29T19:17:57;100357.38;;;13.25;59.47
9110;BME280;4590;51.462;6.692;2022-09-29T19:20:25;100355.28;;;13.22;59.69
9110;BME280;4590;51.462;6.692;2022-09-29T19:22:52;100357.59;;;13.20;59.89
9110;BME280;4590;51.462;6.692;2022-09-29T19:25:21;100361.34;;;13.16;59.91
9110;BME280;4590;51.462;6.692;2022-09-29T19:27:47;100361.97;;;13.13;60.15
9110;BME280;4590;51.462;6.692;2022-09-29T19:30:16;100374.16;;;13.12;59.96
9110;BME280;4590;51.462;6.692;2022-09-29T19:32:42;100376.44;;;13.10;59.91
9110;BME280;4590;51.462;6.692;2022-09-29T19:35:11;100364.81;;;13.04;59.85
9110;BME280;4590;51.462;6.692;2022-09-29T19:37:37;100377.97;;;12.98;60.34
9110;BME280;4590;51.462;6.692;2022-09-29T19:40:05;100379.94;;;12.98;60.07
9110;BME280;4590;51.462;6.692;2022-09-29T19:42:31;100378.31;;;12.97;60.40
9110;BME280;4590;51.462;6.692;2022-09-29T19:44:57;100380.56;;;12.95;60.11
9110;BME280;4590;51.462;6.692;2022-09-29T19:47:23;100388.88;;;12.95;60.43
9110;BME280;4590;51.462;6.692;2022-09-29T19:49:48;100400.56;;;12.92;60.61
9110;BME280;4590;51.462;6.692;2022-09-29T19:52:14;100391.00;;;12.89;60.40
9110;BME280;4590;51.462;6.692;2022-09-29T19:54:39;100404.34;;;12.87;60.60
9110;BME280;4590;51.462;6.692;2022-09-29T19:57:08;100403.38;;;12.83;60.52
9110;BME280;4590;51.462;6.692;2022-09-29T19:59:37;100404.84;;;12.81;60.60
9110;BME280;4590;51.462;6.692;2022-09-29T20:02:05;100412.63;;;12.79;60.75
9110;BME280;4590;51.462;6.692;2022-09-29T20:04:34;100414.09;;;12.76;60.49
9110;BME280;4590;51.462;6.692;2022-09-29T20:07:01;100422.56;;;12.71;60.56
9110;BME280;4590;51.462;6.692;2022-09-29T20:09:27;100415.25;;;12.67;60.59
9110;BME280;4590;51.462;6.692;2022-09-29T20:11:52;100424.53;;;12.62;60.77
9110;BME280;4590;51.462;6.692;2022-09-29T20:14:20;100433.81;;;12.57;60.58
9110;BME280;4590;51.462;6.692;2022-09-29T20:16:51;100429.75;;;12.55;60.81
9110;BME280;4590;51.462;6.692;2022-09-29T20:19:18;100420.81;;;12.49;60.82
9110;BME280;4590;51.462;6.692;2022-09-29T20:21:47;100436.06;;;12.47;60.73
9110;BME280;4590;51.462;6.692;2022-09-29T20:24:14;100439.00;;;12.42;60.67
9110;BME280;4590;51.462;6.692;2022-09-29T20:26:41;100451.84;;;12.38;60.77
9110;BME280;4590;51.462;6.692;2022-09-29T20:29:08;100441.44;;;12.35;61.09
9110;BME280;4590;51.462;6.692;2022-09-29T20:31:34;100450.03;;;12.33;61.01
9110;BME280;4590;51.462;6.692;2022-09-29T20:34:06;100457.00;;;12.30;61.45
9110;BME280;4590;51.462;6.692;2022-09-29T20:36:33;100450.69;;;12.30;61.53
9110;BME280;4590;51.462;6.692;2022-09-29T20:38:58;100460.09;;;12.29;61.62
9110;BME280;4590;51.462;6.692;2022-09-29T20:41:24;100464.34;;;12.26;61.58
9110;BME280;4590;51.462;6.692;2022-09-29T20:43:51;100463.84;;;12.24;61.61
9110;BME280;4590;51.462;6.692;2022-09-29T20:46:18;100471.94;;;12.21;61.83
9110;BME280;4590;51.462;6.692;2022-09-29T20:48:44;100467.06;;;12.18;61.49
9110;BME280;4590;51.462;6.692;2022-09-29T20:51:12;100477.94;;;12.14;61.73
9110;BME280;4590;51.462;6.692;2022-09-29T20:53:43;100477.94;;;12.14;62.17
9110;BME280;4590;51.462;6.692;2022-09-29T20:56:11;100484.59;;;12.13;62.22
9110;BME280;4590;51.462;6.692;2022-09-29T20:58:41;100484.94;;;12.12;62.15
9110;BME280;4590;51.462;6.692;2022-09-29T21:03:37;100498.56;;;12.08;62.14
9110;BME280;4590;51.462;6.692;2022-09-29T21:06:02;100489.78;;;12.06;62.15
9110;BME280;4590;51.462;6.692;2022-09-29T21:08:28;100491.72;;;12.06;62.18
9110;BME280;4590;51.462;6.692;2022-09-29T21:10:58;100491.56;;;12.02;61.83
9110;BME280;4590;51.462;6.692;2022-09-29T21:13:24;100485.22;;;12.02;62.03
9110;BME280;4590;51.462;6.692;2022-09-29T21:15:49;100506.66;;;11.96;61.94
9110;BME280;4590;51.462;6.692;2022-09-29T21:18:14;100489.13;;;11.92;61.59
9110;BME280;4590;51.462;6.692;2022-09-29T21:20:40;100500.78;;;11.89;62.07
9110;BME280;4590;51.462;6.692;2022-09-29T21:23:05;100496.72;;;11.86;62.26
9110;BME280;4590;51.462;6.692;2022-09-29T21:25:30;100504.50;;;11.84;62.04
9110;BME280;4590;51.462;6.692;2022-09-29T21:27:55;100502.88;;;11.83;62.23
9110;BME280;4590;51.462;6.692;2022-09-29T21:30:21;100501.25;;;11.82;62.53
9110;BME280;4590;51.462;6.692;2022-09-29T21:32:46;100507.41;;;11.79;62.11
9110;BME280;4590;51.462;6.692;2022-09-29T21:35:12;100504.16;;;11.77;62.26
9110;BME280;4590;51.462;6.692;2022-09-29T21:37:37;100504.75;;;11.74;62.22
9110;BME280;4590;51.462;6.692;2022-09-29T21:40:03;100501.50;;;11.72;61.92
9110;BME280;4590;51.462;6.692;2022-09-29T21:42:28;100508.47;;;11.70;62.18
9110;BME280;4590;51.462;6.692;2022-09-29T21:44:53;100504.09;;;11.69;62.14
9110;BME280;4590;51.462;6.692;2022-09-29T21:47:18;100505.53;;;11.66;62.28
9110;BME280;4590;51.462;6.692;2022-09-29T21:50:04;100508.44;;;11.61;62.00